Time;durP1;ratioP1;P1;durP2;ratioP2;P2;SDS_P1;SDS_P2;PMS_P1;PMS_P2;Temp;Humidity;BMP_temperature;BMP_pressure;BME280_temperature;BME280_humidity;BME280_pressure;Samples;Min_cycle;Max_cycle;Signal;HPM_P1;HPM_P2
2022/03/26 00:02:18;;;;;;;41.63;17.73;;;;;;;;;;5035885;28;20068;-62
2022/03/26 00:04:43;;;;;;;38.95;17.83;;;;;;;;;;5035844;28;20029;-61
2022/03/26 00:07:09;;;;;;;43.00;19.77;;;;;;;;;;5028278;28;20348;-64
2022/03/26 00:09:35;;;;;;;47.85;19.88;;;;;;;;;;5015818;28;20038;-63
2022/03/26 00:12:00;;;;;;;44.50;19.38;;;;;;;;;;5025001;28;20026;-63
2022/03/26 00:14:26;;;;;;;46.20;19.98;;;;;;;;;;5017793;28;20025;-63
2022/03/26 00:16:51;;;;;;;47.75;19.65;;;;;;;;;;5035653;28;20031;-62
2022/03/26 00:19:17;;;;;;;51.22;21.63;;;;;;;;;;5035515;28;20395;-65
2022/03/26 00:21:45;;;;;;;50.97;20.90;;;;;;;;;;5035240;28;20064;-63
2022/03/26 00:24:10;;;;;;;48.75;20.60;;;;;;;;;;5035561;28;20035;-63
2022/03/26 00:26:36;;;;;;;50.90;20.33;;;;;;;;;;5035342;28;20470;-62
2022/03/26 00:29:01;;;;;;;50.08;21.10;;;;;;;;;;5035007;28;20046;-64
2022/03/26 00:31:27;;;;;;;52.22;21.73;;;;;;;;;;5035291;28;20459;-62
2022/03/26 00:33:54;;;;;;;46.38;19.88;;;;;;;;;;5035239;28;20026;-62
2022/03/26 00:36:20;;;;;;;49.40;20.52;;;;;;;;;;5034823;28;20040;-63
2022/03/26 00:38:46;;;;;;;40.05;18.02;;;;;;;;;;5035086;28;20029;-63
2022/03/26 00:41:12;;;;;;;40.72;18.85;;;;;;;;;;5035071;28;20504;-62
2022/03/26 00:43:37;;;;;;;42.47;18.83;;;;;;;;;;5035186;28;20059;-63
2022/03/26 00:46:03;;;;;;;46.40;20.08;;;;;;;;;;5034968;28;20421;-64
2022/03/26 00:48:28;;;;;;;45.63;19.65;;;;;;;;;;5034908;28;20032;-62
2022/03/26 00:50:54;;;;;;;47.25;19.63;;;;;;;;;;5034990;28;20100;-63
2022/03/26 00:53:20;;;;;;;48.75;20.95;;;;;;;;;;5034874;28;20063;-63
2022/03/26 00:55:45;;;;;;;64.78;26.88;;;;;;;;;;5034898;28;20352;-60
2022/03/26 00:58:11;;;;;;;60.00;24.17;;;;;;;;;;5034850;28;20032;-63
2022/03/26 01:00:37;;;;;;;49.08;22.35;;;;;;;;;;5034731;28;20030;-61
2022/03/26 01:03:08;;;;;;;45.75;20.48;;;;;;;;;;5034718;28;20079;-61
2022/03/26 01:05:34;;;;;;;47.15;19.70;;;;;;;;;;5017758;28;20493;-62
2022/03/26 01:07:59;;;;;;;51.15;20.20;;;;;;;;;;5020368;28;20026;-61
2022/03/26 01:10:26;;;;;;;43.03;19.45;;;;;;;;;;5014645;28;20041;-62
2022/03/26 01:12:52;;;;;;;40.95;20.15;;;;;;;;;;5030895;28;20184;-60
2022/03/26 01:15:18;;;;;;;43.92;19.88;;;;;;;;;;5034497;28;20068;-63
2022/03/26 01:17:44;;;;;;;43.72;19.42;;;;;;;;;;5034537;28;20489;-63
2022/03/26 01:20:10;;;;;;;47.63;20.10;;;;;;;;;;5034333;28;20033;-64
2022/03/26 01:22:36;;;;;;;49.38;20.58;;;;;;;;;;5034371;28;20093;-62
2022/03/26 01:25:01;;;;;;;44.53;20.02;;;;;;;;;;5034365;28;20025;-63
2022/03/26 01:27:27;;;;;;;41.33;18.88;;;;;;;;;;5034252;28;20375;-62
2022/03/26 01:29:52;;;;;;;46.40;19.85;;;;;;;;;;5033864;28;20085;-64
2022/03/26 01:32:18;;;;;;;49.45;19.33;;;;;;;;;;5034255;28;20410;-62
2022/03/26 01:34:43;;;;;;;45.10;18.73;;;;;;;;;;5033984;28;20027;-61
2022/03/26 01:37:09;;;;;;;41.15;18.08;;;;;;;;;;5034119;28;20433;-63
2022/03/26 01:39:35;;;;;;;39.75;18.83;;;;;;;;;;5033939;28;20025;-62
2022/03/26 01:42:05;;;;;;;41.38;19.67;;;;;;;;;;5033937;28;20030;-64
2022/03/26 01:44:31;;;;;;;;;;;;;;;;;;5034408;28;20052;-63
2022/03/26 01:46:57;;;;;;;34.92;16.65;;;;;;;;;;5033633;28;19913;-63
2022/03/26 01:49:22;;;;;;;43.47;18.77;;;;;;;;;;5033381;28;20029;-62
2022/03/26 01:51:48;;;;;;;36.30;16.88;;;;;;;;;;5033767;28;20032;-61
2022/03/26 01:54:16;;;;;;;41.88;18.45;;;;;;;;;;5033805;28;20064;-62
2022/03/26 01:56:42;;;;;;;36.30;17.95;;;;;;;;;;5033611;28;20382;-61
2022/03/26 01:59:08;;;;;;;51.58;19.27;;;;;;;;;;5033616;28;20100;-62
2022/03/26 02:01:35;;;;;;;42.40;19.17;;;;;;;;;;5016126;28;20451;-63
2022/03/26 02:04:05;;;;;;;44.67;20.35;;;;;;;;;;5033264;28;20052;-60
2022/03/26 02:06:36;;;;;;;43.55;19.10;;;;;;;;;;5031255;28;20017;-63
2022/03/26 02:09:06;;;;;;;;;;;;;;;;;;5014136;28;20479;-62
2022/03/26 02:11:37;;;;;;;45.60;18.73;;;;;;;;;;5018840;28;20007;-63
2022/03/26 02:14:03;;;;;;;40.25;18.48;;;;;;;;;;5033460;28;20028;-60
2022/03/26 02:16:30;;;;;;;47.50;19.92;;;;;;;;;;5033394;28;20022;-61
2022/03/26 02:18:57;;;;;;;39.85;19.40;;;;;;;;;;5033103;28;20390;-63
2022/03/26 02:21:23;;;;;;;40.38;19.55;;;;;;;;;;5033246;28;20037;-62
2022/03/26 02:23:50;;;;;;;42.65;20.23;;;;;;;;;;5033244;28;20387;-63
2022/03/26 02:26:18;;;;;;;37.75;18.55;;;;;;;;;;5033176;28;20026;-64
2022/03/26 02:28:44;;;;;;;45.38;20.02;;;;;;;;;;5032905;28;20045;-67
2022/03/26 02:31:13;;;;;;;43.72;19.92;;;;;;;;;;5026834;28;20561;-62
2022/03/26 02:33:40;;;;;;;36.33;18.27;;;;;;;;;;5027401;28;20040;-62
2022/03/26 02:36:06;;;;;;;45.90;20.98;;;;;;;;;;5021444;28;20018;-61
2022/03/26 02:38:32;;;;;;;53.92;20.63;;;;;;;;;;5020185;28;20080;-63
2022/03/26 02:40:58;;;;;;;40.28;19.38;;;;;;;;;;5028532;28;20347;-62
2022/03/26 02:43:23;;;;;;;40.88;20.10;;;;;;;;;;5013506;28;20041;-63
2022/03/26 02:45:49;;;;;;;42.83;21.25;;;;;;;;;;5022889;28;20026;-62
2022/03/26 02:48:14;;;;;;;46.63;21.17;;;;;;;;;;5021936;28;20018;-62
2022/03/26 02:50:41;;;;;;;42.88;19.50;;;;;;;;;;5021205;28;20029;-63
2022/03/26 02:53:07;;;;;;;43.70;20.15;;;;;;;;;;5020991;28;20078;-60
2022/03/26 02:55:34;;;;;;;44.47;20.48;;;;;;;;;;5021234;28;20386;-64
2022/03/26 02:57:59;;;;;;;42.42;19.52;;;;;;;;;;5021318;28;20029;-64
2022/03/26 03:00:25;;;;;;;40.10;19.90;;;;;;;;;;5022092;28;20498;-62
2022/03/26 03:02:50;;;;;;;46.58;21.50;;;;;;;;;;5021460;28;20030;-64
2022/03/26 03:05:16;;;;;;;39.28;19.52;;;;;;;;;;5021748;28;20053;-64
2022/03/26 03:07:41;;;;;;;44.72;21.05;;;;;;;;;;5023210;28;20021;-60
2022/03/26 03:10:07;;;;;;;45.58;21.88;;;;;;;;;;5022797;28;20072;-63
2022/03/26 03:12:33;;;;;;;46.10;21.08;;;;;;;;;;5022982;28;20459;-64
2022/03/26 03:14:59;;;;;;;49.72;22.40;;;;;;;;;;5022269;28;20030;-63
2022/03/26 03:17:24;;;;;;;45.10;20.73;;;;;;;;;;5022638;28;20025;-62
2022/03/26 03:19:50;;;;;;;45.15;20.08;;;;;;;;;;5020949;28;20075;-60
2022/03/26 03:22:16;;;;;;;43.13;20.88;;;;;;;;;;5022991;28;20030;-60
2022/03/26 03:24:42;;;;;;;42.00;21.10;;;;;;;;;;5022042;28;20034;-63
2022/03/26 03:27:07;;;;;;;45.72;20.58;;;;;;;;;;5021242;28;20506;-64
2022/03/26 03:29:33;;;;;;;47.60;21.13;;;;;;;;;;5022570;28;20103;-63
2022/03/26 03:31:59;;;;;;;44.60;21.40;;;;;;;;;;5021493;28;20394;-62
2022/03/26 03:34:24;;;;;;;46.97;21.77;;;;;;;;;;5019114;28;20474;-62
2022/03/26 03:36:50;;;;;;;42.45;21.30;;;;;;;;;;5020461;28;20398;-63
2022/03/26 03:39:15;;;;;;;47.05;21.77;;;;;;;;;;5022307;28;20104;-63
2022/03/26 03:41:41;;;;;;;44.08;22.13;;;;;;;;;;5020789;28;20033;-61
2022/03/26 03:44:06;;;;;;;45.88;22.13;;;;;;;;;;5022573;28;20025;-64
2022/03/26 03:46:33;;;;;;;81.82;41.97;;;;;;;;;;5021781;28;20164;-65
2022/03/26 03:49:00;;;;;;;53.28;28.33;;;;;;;;;;5020540;28;20505;-63
2022/03/26 03:51:25;;;;;;;83.38;41.10;;;;;;;;;;5020776;28;20025;-62
2022/03/26 03:53:51;;;;;;;58.83;27.55;;;;;;;;;;5021836;28;20509;-63
2022/03/26 03:56:16;;;;;;;50.63;23.75;;;;;;;;;;5026815;28;20080;-62
2022/03/26 03:58:42;;;;;;;51.90;23.08;;;;;;;;;;5022912;28;20026;-63
2022/03/26 04:01:07;;;;;;;61.40;26.17;;;;;;;;;;5021218;28;20038;-62
2022/03/26 04:03:33;;;;;;;67.75;26.67;;;;;;;;;;5019408;28;20030;-63
2022/03/26 04:05:59;;;;;;;61.47;25.85;;;;;;;;;;5021371;28;20029;-63
2022/03/26 04:08:25;;;;;;;68.07;27.40;;;;;;;;;;5020599;28;20459;-63
2022/03/26 04:10:50;;;;;;;49.55;21.52;;;;;;;;;;5021052;28;20056;-62
2022/03/26 04:13:16;;;;;;;58.17;22.30;;;;;;;;;;5025728;28;20022;-63
2022/03/26 04:15:41;;;;;;;45.78;20.23;;;;;;;;;;5024842;28;20071;-63
2022/03/26 04:18:07;;;;;;;44.25;21.15;;;;;;;;;;5024242;28;20044;-64
2022/03/26 04:20:34;;;;;;;37.97;18.02;;;;;;;;;;5023100;28;20022;-64
2022/03/26 04:22:59;;;;;;;49.50;22.95;;;;;;;;;;5024916;28;20032;-63
2022/03/26 04:25:25;;;;;;;45.72;20.50;;;;;;;;;;5024190;28;20104;-63
2022/03/26 04:27:50;;;;;;;57.08;23.88;;;;;;;;;;5023014;28;20026;-60
2022/03/26 04:30:16;;;;;;;51.00;22.02;;;;;;;;;;5024657;28;20479;-63
2022/03/26 04:32:42;;;;;;;46.05;21.55;;;;;;;;;;5023554;28;20026;-63
2022/03/26 04:35:09;;;;;;;46.63;20.83;;;;;;;;;;5023233;28;20021;-62
2022/03/26 04:37:35;;;;;;;51.03;20.45;;;;;;;;;;5027849;28;20028;-63
2022/03/26 04:40:02;;;;;;;46.25;20.38;;;;;;;;;;5034755;28;20108;-62
2022/03/26 04:42:27;;;;;;;49.05;22.38;;;;;;;;;;5034801;28;20101;-60
2022/03/26 04:44:53;;;;;;;50.75;21.98;;;;;;;;;;5034870;28;20109;-63
2022/03/26 04:47:19;;;;;;;51.53;23.10;;;;;;;;;;5034718;28;20053;-62
2022/03/26 04:49:45;;;;;;;48.08;22.27;;;;;;;;;;5034685;28;20029;-61
2022/03/26 04:52:10;;;;;;;49.83;22.88;;;;;;;;;;5034499;28;20356;-63
2022/03/26 04:54:36;;;;;;;47.40;21.88;;;;;;;;;;5034372;28;20029;-64
2022/03/26 04:57:01;;;;;;;48.22;20.52;;;;;;;;;;5034316;28;20483;-60
2022/03/26 04:59:27;;;;;;;49.80;22.35;;;;;;;;;;5034362;28;20036;-63
2022/03/26 05:01:52;;;;;;;41.00;19.05;;;;;;;;;;5034300;28;20029;-64
2022/03/26 05:04:18;;;;;;;39.47;18.08;;;;;;;;;;5034424;28;20033;-62
2022/03/26 05:06:43;;;;;;;43.72;21.58;;;;;;;;;;5033997;28;20137;-63
2022/03/26 05:09:09;;;;;;;48.47;21.48;;;;;;;;;;5033976;28;20025;-62
2022/03/26 05:11:35;;;;;;;45.92;21.65;;;;;;;;;;5033433;28;20025;-63
2022/03/26 05:14:01;;;;;;;44.10;20.38;;;;;;;;;;5033639;28;20036;-64
2022/03/26 05:16:26;;;;;;;42.55;21.55;;;;;;;;;;5033718;28;20029;-63
2022/03/26 05:18:51;;;;;;;52.35;22.08;;;;;;;;;;5033495;28;20038;-63
2022/03/26 05:21:17;;;;;;;43.45;19.95;;;;;;;;;;5015811;28;20111;-63
2022/03/26 05:23:43;;;;;;;40.25;19.90;;;;;;;;;;5032305;28;20224;-62
2022/03/26 05:26:08;;;;;;;38.72;20.35;;;;;;;;;;5033706;28;20036;-60
2022/03/26 05:28:34;;;;;;;35.13;18.10;;;;;;;;;;5033307;28;20084;-62
2022/03/26 05:30:59;;;;;;;36.35;19.25;;;;;;;;;;5033944;28;20431;-62
2022/03/26 05:33:25;;;;;;;38.80;20.00;;;;;;;;;;5033571;28;20021;-62
2022/03/26 05:35:51;;;;;;;43.53;21.08;;;;;;;;;;5033735;28;20029;-64
2022/03/26 05:38:17;;;;;;;49.80;22.25;;;;;;;;;;5033678;28;20029;-63
2022/03/26 05:40:42;;;;;;;48.33;21.70;;;;;;;;;;5033440;28;20041;-62
2022/03/26 05:43:08;;;;;;;43.33;22.25;;;;;;;;;;5033592;28;20018;-63
2022/03/26 05:45:33;;;;;;;44.10;20.67;;;;;;;;;;5033683;28;20029;-61
2022/03/26 05:48:02;;;;;;;40.42;19.40;;;;;;;;;;5015632;28;20113;-63
2022/03/26 05:50:29;;;;;;;37.50;18.77;;;;;;;;;;5033517;28;20028;-63
2022/03/26 05:52:55;;;;;;;40.40;19.40;;;;;;;;;;5033448;28;20052;-63
2022/03/26 05:55:20;;;;;;;37.72;19.15;;;;;;;;;;5033377;28;20371;-61
2022/03/26 05:57:47;;;;;;;42.58;19.27;;;;;;;;;;5033253;28;20040;-63
2022/03/26 06:00:13;;;;;;;40.15;20.20;;;;;;;;;;5033257;28;20029;-60
2022/03/26 06:02:39;;;;;;;39.17;18.63;;;;;;;;;;5033382;28;20375;-64
2022/03/26 06:05:05;;;;;;;37.72;18.00;;;;;;;;;;5033199;28;20029;-63
2022/03/26 06:07:31;;;;;;;41.00;20.08;;;;;;;;;;5023032;28;20026;-64
2022/03/26 06:09:56;;;;;;;36.83;18.58;;;;;;;;;;5013043;28;20029;-64
2022/03/26 06:12:22;;;;;;;43.08;21.52;;;;;;;;;;5025141;28;20033;-63
2022/03/26 06:14:48;;;;;;;38.63;21.05;;;;;;;;;;5033043;28;20047;-63
2022/03/26 06:17:15;;;;;;;33.40;17.23;;;;;;;;;;5032915;28;20029;-64
2022/03/26 06:19:42;;;;;;;33.65;18.30;;;;;;;;;;5032960;28;20029;-62
2022/03/26 06:22:07;;;;;;;84.70;44.00;;;;;;;;;;5032868;28;20498;-63
2022/03/26 06:24:33;;;;;;;31.75;17.05;;;;;;;;;;5032642;28;20040;-61
2022/03/26 06:26:59;;;;;;;39.58;23.58;;;;;;;;;;5032834;28;20379;-63
2022/03/26 06:29:26;;;;;;;39.13;22.58;;;;;;;;;;5032545;28;20438;-62
2022/03/26 06:31:52;;;;;;;34.97;17.98;;;;;;;;;;5032619;28;20108;-63
2022/03/26 06:34:17;;;;;;;29.00;16.05;;;;;;;;;;5032466;28;20542;-61
2022/03/26 06:36:43;;;;;;;33.88;16.95;;;;;;;;;;5032896;28;20034;-62
2022/03/26 06:39:09;;;;;;;36.88;19.27;;;;;;;;;;5032412;28;20029;-62
2022/03/26 06:41:39;;;;;;;29.15;14.85;;;;;;;;;;5032774;28;20113;-61
2022/03/26 06:44:07;;;;;;;29.65;14.40;;;;;;;;;;5032878;28;20490;-62
2022/03/26 06:46:33;;;;;;;25.33;13.27;;;;;;;;;;5032724;28;20475;-61
2022/03/26 06:48:59;;;;;;;26.77;13.68;;;;;;;;;;5032731;28;20044;-63
2022/03/26 06:51:24;;;;;;;30.88;14.20;;;;;;;;;;5032611;28;20021;-62
2022/03/26 06:53:50;;;;;;;25.83;13.75;;;;;;;;;;5032523;28;20053;-63
2022/03/26 06:56:15;;;;;;;29.10;14.38;;;;;;;;;;5032792;28;20069;-63
2022/03/26 06:58:41;;;;;;;27.20;15.25;;;;;;;;;;5032681;28;20374;-64
2022/03/26 07:01:06;;;;;;;33.65;13.95;;;;;;;;;;5032347;28;20025;-63
2022/03/26 07:03:32;;;;;;;26.42;14.20;;;;;;;;;;5032575;28;20239;-63
2022/03/26 07:05:57;;;;;;;33.88;16.58;;;;;;;;;;5032502;28;20041;-65
2022/03/26 07:08:23;;;;;;;29.58;13.45;;;;;;;;;;5014824;28;20036;-61
2022/03/26 07:10:49;;;;;;;27.15;14.13;;;;;;;;;;5012769;28;20030;-62
2022/03/26 07:13:15;;;;;;;24.95;12.50;;;;;;;;;;5031905;28;20022;-65
2022/03/26 07:15:43;;;;;;;37.00;15.75;;;;;;;;;;5032405;28;20025;-64
2022/03/26 07:18:11;;;;;;;29.20;12.90;;;;;;;;;;5032482;28;20492;-63
2022/03/26 07:20:36;;;;;;;27.55;15.80;;;;;;;;;;5032422;28;20038;-62
2022/03/26 07:23:02;;;;;;;29.42;14.85;;;;;;;;;;5032208;28;20033;-62
2022/03/26 07:25:29;;;;;;;29.38;14.68;;;;;;;;;;5032440;28;20021;-64
2022/03/26 07:27:55;;;;;;;26.70;14.40;;;;;;;;;;5032157;28;20064;-61
2022/03/26 07:30:21;;;;;;;25.77;14.90;;;;;;;;;;5031891;28;20077;-66
2022/03/26 07:32:46;;;;;;;37.60;17.50;;;;;;;;;;5032306;28;20025;-62
2022/03/26 07:35:12;;;;;;;33.25;16.30;;;;;;;;;;5032067;28;20112;-63
2022/03/26 07:37:37;;;;;;;28.35;15.15;;;;;;;;;;5014257;28;20037;-61
2022/03/26 07:40:04;;;;;;;30.15;16.58;;;;;;;;;;5032035;28;20033;-61
2022/03/26 07:42:29;;;;;;;29.23;14.60;;;;;;;;;;5032199;28;20068;-61
2022/03/26 07:44:55;;;;;;;31.85;16.33;;;;;;;;;;5032213;28;20379;-61
2022/03/26 07:47:21;;;;;;;29.23;14.90;;;;;;;;;;5035623;28;20021;-62
2022/03/26 07:49:46;;;;;;;36.97;19.00;;;;;;;;;;5035941;28;20032;-61
2022/03/26 07:52:12;;;;;;;34.58;17.17;;;;;;;;;;5035488;28;20481;-62
2022/03/26 07:54:38;;;;;;;31.67;15.45;;;;;;;;;;5035943;28;20091;-61
2022/03/26 07:57:04;;;;;;;29.15;15.55;;;;;;;;;;5036020;28;20030;-61
2022/03/26 07:59:30;;;;;;;34.00;17.05;;;;;;;;;;5035922;28;20121;-61
2022/03/26 08:01:55;;;;;;;31.77;14.82;;;;;;;;;;5035914;28;20057;-61
2022/03/26 08:04:22;;;;;;;27.08;15.05;;;;;;;;;;5035799;28;20526;-65
2022/03/26 08:06:47;;;;;;;26.60;12.80;;;;;;;;;;5031237;28;20545;-63
2022/03/26 08:09:13;;;;;;;32.35;14.05;;;;;;;;;;5015892;28;20026;-64
2022/03/26 08:11:38;;;;;;;25.42;13.38;;;;;;;;;;5021761;28;20030;-65
2022/03/26 08:14:04;;;;;;;25.52;12.93;;;;;;;;;;5035727;28;20033;-63
2022/03/26 08:16:29;;;;;;;28.52;13.55;;;;;;;;;;5035589;28;20022;-63
2022/03/26 08:18:55;;;;;;;25.75;12.90;;;;;;;;;;5035574;28;20030;-63
2022/03/26 08:21:20;;;;;;;38.17;20.00;;;;;;;;;;5035313;28;20352;-63
2022/03/26 08:23:46;;;;;;;57.25;27.70;;;;;;;;;;5035317;28;20040;-64
2022/03/26 08:26:29;;;;;;;45.58;23.77;;;;;;;;;;5035092;28;20033;-64
2022/03/26 08:28:58;;;;;;;93.32;56.42;;;;;;;;;;5034937;28;20076;-65
2022/03/26 08:31:26;;;;;;;30.60;16.23;;;;;;;;;;5035172;28;20029;-65
2022/03/26 08:33:53;;;;;;;31.42;18.80;;;;;;;;;;5034988;28;20029;-65
2022/03/26 08:36:19;;;;;;;30.85;16.83;;;;;;;;;;5034993;28;20491;-64
2022/03/26 08:38:46;;;;;;;27.05;15.60;;;;;;;;;;5035011;28;20057;-61
2022/03/26 08:41:15;;;;;;;30.10;14.30;;;;;;;;;;5035085;28;20175;-64
2022/03/26 08:43:41;;;;;;;32.05;14.50;;;;;;;;;;5034735;28;20088;-62
2022/03/26 08:46:07;;;;;;;22.77;12.15;;;;;;;;;;5035126;28;20483;-61
2022/03/26 08:48:32;;;;;;;23.63;13.13;;;;;;;;;;5034728;28;20037;-64
2022/03/26 08:50:59;;;;;;;27.83;14.75;;;;;;;;;;5034926;28;20041;-61
2022/03/26 08:53:24;;;;;;;24.33;12.05;;;;;;;;;;5034692;28;20039;-61
2022/03/26 08:55:51;;;;;;;25.30;12.88;;;;;;;;;;5034734;28;20033;-62
2022/03/26 08:58:17;;;;;;;23.38;12.82;;;;;;;;;;5034706;28;20029;-62
2022/03/26 09:00:47;;;;;;;24.00;12.77;;;;;;;;;;5034503;28;20030;-62
2022/03/26 09:03:13;;;;;;;21.40;11.93;;;;;;;;;;5034519;28;20486;-62
2022/03/26 09:05:39;;;;;;;27.90;14.25;;;;;;;;;;5034621;28;20025;-61
2022/03/26 09:08:04;;;;;;;30.27;15.65;;;;;;;;;;5019684;28;20525;-61
2022/03/26 09:10:30;;;;;;;26.40;14.95;;;;;;;;;;5014674;28;20029;-62
2022/03/26 09:12:56;;;;;;;24.88;12.18;;;;;;;;;;5031242;28;20355;-61
2022/03/26 09:15:21;;;;;;;22.08;12.25;;;;;;;;;;5034476;28;20021;-61
2022/03/26 09:17:47;;;;;;;23.02;11.98;;;;;;;;;;5034085;28;20038;-61
2022/03/26 09:20:12;;;;;;;31.45;13.65;;;;;;;;;;5034386;28;20030;-62
2022/03/26 09:22:38;;;;;;;25.02;12.60;;;;;;;;;;5034319;28;20037;-62
2022/03/26 09:25:05;;;;;;;21.90;11.85;;;;;;;;;;5034206;28;20026;-61
2022/03/26 09:27:31;;;;;;;24.45;12.48;;;;;;;;;;5034164;28;20026;-63
2022/03/26 09:29:57;;;;;;;32.00;13.70;;;;;;;;;;5033911;28;20401;-61
2022/03/26 09:32:22;;;;;;;23.15;12.82;;;;;;;;;;5034023;28;20041;-61
2022/03/26 09:34:48;;;;;;;25.00;12.27;;;;;;;;;;5034191;28;20083;-61
2022/03/26 09:37:15;;;;;;;24.80;12.93;;;;;;;;;;5034064;28;20033;-62
2022/03/26 09:39:41;;;;;;;21.27;13.00;;;;;;;;;;5033972;28;20076;-64
2022/03/26 09:42:08;;;;;;;24.38;12.93;;;;;;;;;;5033891;28;20029;-61
2022/03/26 09:44:34;;;;;;;25.13;12.43;;;;;;;;;;5033519;28;20363;-64
2022/03/26 09:47:01;;;;;;;21.45;10.88;;;;;;;;;;5033324;28;20032;-64
2022/03/26 09:49:27;;;;;;;24.27;12.15;;;;;;;;;;5033771;28;20029;-61
2022/03/26 09:51:54;;;;;;;21.50;10.70;;;;;;;;;;5033833;28;20387;-64
2022/03/26 09:54:21;;;;;;;22.13;11.20;;;;;;;;;;5033778;28;20120;-61
2022/03/26 09:56:47;;;;;;;18.10;9.85;;;;;;;;;;5033845;28;20025;-64
2022/03/26 09:59:12;;;;;;;26.13;9.55;;;;;;;;;;5033586;28;20155;-65
2022/03/26 10:01:38;;;;;;;18.27;9.07;;;;;;;;;;5033458;28;20036;-61
2022/03/26 10:04:18;;;;;;;21.67;10.93;;;;;;;;;;5033516;28;20028;-64
2022/03/26 10:06:51;;;;;;;19.10;10.00;;;;;;;;;;5029589;28;20053;-62
2022/03/26 10:09:38;;;;;;;17.10;9.18;;;;;;;;;;5013122;28;20026;-64
2022/03/26 10:12:17;;;;;;;17.73;8.77;;;;;;;;;;5023035;28;20356;-63
2022/03/26 10:14:44;;;;;;;18.38;8.90;;;;;;;;;;5033348;28;20033;-60
2022/03/26 10:17:15;;;;;;;14.85;9.07;;;;;;;;;;5033026;28;20030;-64
2022/03/26 10:20:06;;;;;;;17.80;9.68;;;;;;;;;;5033343;28;20028;-64
2022/03/26 10:22:40;;;;;;;16.98;9.13;;;;;;;;;;5031128;28;20045;-64
2022/03/26 10:25:23;;;;;;;18.08;9.98;;;;;;;;;;5033071;28;20026;-64
2022/03/26 10:27:55;;;;;;;18.83;9.55;;;;;;;;;;5032968;28;20502;-64
2022/03/26 10:33:22;;;;;;;15.27;7.55;;;;;;;;;;5033392;28;20082;-64
2022/03/26 10:36:01;;;;;;;15.32;8.38;;;;;;;;;;5015214;28;20390;-61
2022/03/26 10:38:42;;;;;;;17.17;9.55;;;;;;;;;;5032912;28;20048;-61
2022/03/26 10:41:09;;;;;;;17.25;9.13;;;;;;;;;;5032775;28;20060;-61
2022/03/26 10:43:41;;;;;;;20.35;8.20;;;;;;;;;;5032924;28;20108;-64
2022/03/26 10:46:07;;;;;;;21.20;10.10;;;;;;;;;;5032612;28;20025;-60
2022/03/26 10:48:34;;;;;;;18.95;9.60;;;;;;;;;;5032602;28;20057;-61
2022/03/26 10:51:06;;;;;;;22.95;10.93;;;;;;;;;;5032814;28;20034;-62
2022/03/26 10:53:42;;;;;;;22.90;11.45;;;;;;;;;;5032815;28;20064;-63
2022/03/26 10:56:12;;;;;;;16.08;9.38;;;;;;;;;;5032887;28;20056;-59
2022/03/26 10:58:38;;;;;;;25.50;9.65;;;;;;;;;;5032779;28;20018;-60
2022/03/26 11:01:03;;;;;;;17.08;9.10;;;;;;;;;;5032529;28;20140;-59
2022/03/26 11:03:29;;;;;;;16.83;9.32;;;;;;;;;;5032875;28;20063;-62
2022/03/26 11:05:56;;;;;;;18.10;9.57;;;;;;;;;;5032702;28;20029;-63
2022/03/26 11:08:30;;;;;;;18.83;9.90;;;;;;;;;;5015168;28;20073;-62
2022/03/26 11:10:56;;;;;;;20.25;9.73;;;;;;;;;;5012977;28;20383;-62
2022/03/26 11:13:23;;;;;;;15.57;8.40;;;;;;;;;;5032655;28;20026;-63
2022/03/26 11:15:57;;;;;;;15.85;9.02;;;;;;;;;;5014509;28;20053;-62
2022/03/26 11:18:52;;;;;;;18.50;8.15;;;;;;;;;;5032475;28;20033;-62
2022/03/26 11:21:37;;;;;;;25.95;11.13;;;;;;;;;;5034586;28;20025;-63
2022/03/26 11:24:27;;;;;;;17.17;8.45;;;;;;;;;;5036135;28;20073;-62
2022/03/26 11:27:07;;;;;;;18.35;7.13;;;;;;;;;;5036584;28;20039;-63
2022/03/26 11:30:05;;;;;;;14.88;7.53;;;;;;;;;;5035979;28;20095;-64
2022/03/26 11:32:37;;;;;;;13.93;7.40;;;;;;;;;;5036691;28;20604;-61
2022/03/26 11:35:10;;;;;;;14.55;7.07;;;;;;;;;;5027516;28;20076;-61
2022/03/26 11:37:51;;;;;;;19.13;7.57;;;;;;;;;;5025781;28;20375;-60
2022/03/26 11:40:35;;;;;;;;;;;;;;;;;;5027428;28;20034;-60
2022/03/26 11:43:00;;;;;;;9.57;6.00;;;;;;;;;;5025878;28;19975;-60
2022/03/26 11:51:24;;;;;;;14.45;6.60;;;;;;;;;;5025188;28;20450;-60
2022/03/26 11:54:06;;;;;;;11.20;6.03;;;;;;;;;;5016228;28;20116;-63
2022/03/26 11:56:33;;;;;;;11.63;6.55;;;;;;;;;;5018664;28;20030;-63
2022/03/26 11:59:17;;;;;;;14.50;7.53;;;;;;;;;;5023988;28;20041;-63
2022/03/26 12:01:43;;;;;;;19.35;11.98;;;;;;;;;;5021095;28;20053;-61
2022/03/26 12:04:14;;;;;;;15.15;8.70;;;;;;;;;;5024788;28;20030;-59
2022/03/26 12:06:43;;;;;;;16.13;10.68;;;;;;;;;;5023971;28;20022;-60
2022/03/26 12:09:10;;;;;;;14.52;6.22;;;;;;;;;;5023717;28;20112;-64
2022/03/26 12:11:36;;;;;;;12.98;7.53;;;;;;;;;;5026876;28;20533;-62
2022/03/26 12:14:07;;;;;;;15.23;8.05;;;;;;;;;;5023447;28;20029;-63
2022/03/26 12:16:51;;;;;;;11.73;6.55;;;;;;;;;;5023635;28;20025;-61
2022/03/26 12:19:48;;;;;;;11.57;6.85;;;;;;;;;;5024973;28;20034;-63
2022/03/26 12:22:26;;;;;;;13.75;6.68;;;;;;;;;;5024740;28;20061;-61
2022/03/26 12:24:53;;;;;;;15.00;7.70;;;;;;;;;;5024679;28;20033;-62
2022/03/26 12:27:18;;;;;;;13.93;7.10;;;;;;;;;;5024068;28;20026;-62
2022/03/26 12:29:44;;;;;;;10.90;6.70;;;;;;;;;;5024127;28;20048;-60
2022/03/26 12:32:10;;;;;;;14.18;7.85;;;;;;;;;;5022422;28;20228;-63
2022/03/26 12:34:54;;;;;;;15.48;8.20;;;;;;;;;;5024727;28;20029;-61
2022/03/26 12:37:22;;;;;;;13.48;7.57;;;;;;;;;;5026643;28;20018;-62
2022/03/26 12:39:47;;;;;;;10.75;7.20;;;;;;;;;;5034719;28;20086;-60
2022/03/26 12:42:13;;;;;;;11.90;6.90;;;;;;;;;;5034429;28;20470;-62
2022/03/26 12:44:38;;;;;;;13.90;6.82;;;;;;;;;;5034747;28;20052;-62
2022/03/26 12:47:05;;;;;;;13.57;6.80;;;;;;;;;;5034338;28;20421;-62
2022/03/26 12:49:36;;;;;;;10.93;5.90;;;;;;;;;;5034597;28;20050;-60
2022/03/26 12:52:02;;;;;;;17.02;5.47;;;;;;;;;;5034618;28;20021;-60
2022/03/26 12:54:29;;;;;;;15.32;6.43;;;;;;;;;;5016724;28;20022;-63
2022/03/26 12:56:55;;;;;;;15.43;6.40;;;;;;;;;;5034145;28;20036;-62
2022/03/26 12:59:20;;;;;;;14.32;6.10;;;;;;;;;;5034441;28;20025;-60
2022/03/26 13:01:46;;;;;;;12.80;6.03;;;;;;;;;;5034215;28;20109;-63
2022/03/26 13:04:18;;;;;;;14.73;6.60;;;;;;;;;;5027553;28;20029;-62
2022/03/26 13:06:44;;;;;;;14.93;9.32;;;;;;;;;;5017285;28;20104;-62
2022/03/26 13:09:09;;;;;;;28.15;15.52;;;;;;;;;;5034028;28;20120;-61
2022/03/26 13:11:36;;;;;;;16.85;8.63;;;;;;;;;;5033903;28;20100;-62
2022/03/26 13:14:05;;;;;;;48.40;22.75;;;;;;;;;;5033925;28;20033;-61
2022/03/26 13:16:34;;;;;;;18.40;7.70;;;;;;;;;;5034221;28;20414;-60
2022/03/26 13:19:04;;;;;;;19.02;8.77;;;;;;;;;;5033639;28;20025;-61
2022/03/26 13:21:32;;;;;;;29.23;13.82;;;;;;;;;;5033921;28;20026;-60
2022/03/26 13:24:00;;;;;;;24.65;14.60;;;;;;;;;;5033817;28;20029;-60
2022/03/26 13:26:54;;;;;;;17.63;10.40;;;;;;;;;;5033823;28;20029;-60
2022/03/26 13:29:22;;;;;;;9.15;5.78;;;;;;;;;;5033368;28;20069;-60
2022/03/26 13:31:51;;;;;;;10.13;5.53;;;;;;;;;;5033650;28;20030;-61
2022/03/26 13:34:22;;;;;;;10.75;6.75;;;;;;;;;;5033843;28;20033;-65
2022/03/26 13:36:47;;;;;;;11.00;5.22;;;;;;;;;;5033783;28;20021;-63
2022/03/26 13:39:18;;;;;;;11.88;5.60;;;;;;;;;;5033210;28;20386;-62
2022/03/26 13:41:43;;;;;;;;;;;;;;;;;;5033748;28;20036;-60
2022/03/26 13:44:10;;;;;;;11.43;5.63;;;;;;;;;;5032753;28;19913;-61
2022/03/26 13:46:36;;;;;;;7.68;5.18;;;;;;;;;;5033371;28;20021;-63
2022/03/26 13:49:02;;;;;;;9.18;4.97;;;;;;;;;;5033085;28;20036;-60
2022/03/26 13:51:30;;;;;;;11.02;5.50;;;;;;;;;;5033617;28;20021;-59
2022/03/26 13:53:59;;;;;;;10.60;5.20;;;;;;;;;;5032984;28;20378;-60
2022/03/26 13:56:27;;;;;;;7.80;4.70;;;;;;;;;;5033172;28;20060;-63
2022/03/26 13:58:53;;;;;;;11.48;5.30;;;;;;;;;;5033138;28;20035;-62
2022/03/26 14:01:21;;;;;;;9.95;5.35;;;;;;;;;;5033262;28;20549;-59
2022/03/26 14:03:57;;;;;;;13.63;5.45;;;;;;;;;;5031505;28;20030;-62
2022/03/26 14:06:22;;;;;;;7.88;5.43;;;;;;;;;;5023289;28;20056;-62
2022/03/26 14:08:48;;;;;;;11.55;5.05;;;;;;;;;;5021345;28;20025;-62
2022/03/26 14:11:17;;;;;;;13.35;6.25;;;;;;;;;;5022033;28;20132;-61
2022/03/26 14:13:43;;;;;;;10.40;4.93;;;;;;;;;;5028976;28;20026;-63
2022/03/26 14:16:09;;;;;;;11.77;5.75;;;;;;;;;;5025224;28;20053;-60
2022/03/26 14:18:35;;;;;;;10.60;6.07;;;;;;;;;;5033111;28;20029;-62
2022/03/26 14:21:01;;;;;;;10.32;5.63;;;;;;;;;;5033243;28;20348;-61
2022/03/26 14:23:26;;;;;;;13.48;5.40;;;;;;;;;;5032885;28;20040;-61
2022/03/26 14:25:52;;;;;;;11.05;5.22;;;;;;;;;;5032921;28;20033;-61
2022/03/26 14:28:18;;;;;;;9.85;5.05;;;;;;;;;;5032956;28;20025;-63
2022/03/26 14:30:45;;;;;;;13.45;5.75;;;;;;;;;;5032863;28;20040;-62
2022/03/26 14:33:12;;;;;;;9.38;5.35;;;;;;;;;;5032905;28;20071;-63